^^
Meteo Knjazevac Station Historical Data
Daily Summary for January 22, 2021 Units:  Metric    English   Both
Daily Weekly Monthly Yearly Custom
  High: Low: Average:
Temperature: 22.4 °C 7.6 °C 15.2 °C
Dew Point: 14 °C 6.7 °C 11.1 °C
Humidity: 98% 57% 78%
Wind Speed: 14.5km/h 0km/h 4.2km/h
Wind Gust: 24.1km/h - -
Wind- - South
Pressure: 1021.6 hPa 1018.8 hPa -
Precipitation: 0 mm    
Historical Graphs
 
 
Tabular Data for January 22, 2021
Time Temperature Dew Point Pressure Wind Wind Speed Wind Gust Humidity Rainfall Rate (Hourly) solar Conditions
00:00 11.9 °C 9.3 °C 1019.2 hPa Calm   9.7 km/h 84% 0 mm 0 W/m2
00:10 11.8 °C 9.2 °C 1019.2 hPa SE 3.2 km/h 8 km/h 84% 0 mm 0 W/m2
00:20 11.7 °C 9.1 °C 1019.2 hPa East 1.6 km/h 9.7 km/h 84% 0 mm 0 W/m2
00:30 11.6 °C 9 °C 1019.2 hPa ESE 3.2 km/h 8 km/h 84% 0 mm 0 W/m2
00:40 11.6 °C 8.9 °C 1019.2 hPa Calm   8 km/h 84% 0 mm 0 W/m2
00:50 11.3 °C 8.9 °C 1019.2 hPa ESE 1.6 km/h 9.7 km/h 85% 0 mm 0 W/m2
01:00 11.3 °C 8.9 °C 1019.2 hPa ENE 1.6 km/h 8 km/h 85% 0 mm 0 W/m2
01:10 11.3 °C 8.9 °C 1019.2 hPa SE 4.8 km/h 9.7 km/h 85% 0 mm 0 W/m2
01:20 11.3 °C 8.9 °C 1019.2 hPa ENE 4.8 km/h 9.7 km/h 85% 0 mm 0 W/m2
01:30 11.2 °C 8.8 °C 1019.2 hPa NNE 4.8 km/h 9.7 km/h 85% 0 mm 0 W/m2
01:50 11.1 °C 8.8 °C 1019.2 hPa NE 8 km/h 16.1 km/h 86% 0 mm 0 W/m2
02:00 11 °C 8.7 °C 1019.2 hPa East 8 km/h 16.1 km/h 86% 0 mm 0 W/m2
02:10 10.9 °C 8.7 °C 1019.5 hPa ENE 8 km/h 12.9 km/h 86% 0 mm 0 W/m2
02:20 10.9 °C 8.7 °C 1019.5 hPa East 8 km/h 14.5 km/h 86% 0 mm 0 W/m2
02:30 10.9 °C 8.7 °C 1019.5 hPa ESE 4.8 km/h 11.3 km/h 86% 0 mm 0 W/m2
02:40 10.8 °C 8.6 °C 1019.2 hPa NE 4.8 km/h 11.3 km/h 86% 0 mm 0 W/m2
02:50 10.7 °C 8.7 °C 1019.5 hPa NNE 1.6 km/h 8 km/h 88% 0 mm 0 W/m2
03:00 10.5 °C 8.6 °C 1019.5 hPa NE 4.8 km/h 9.7 km/h 88% 0 mm 0 W/m2
03:10 10.6 °C 8.7 °C 1019.2 hPa NE 3.2 km/h 11.3 km/h 88% 0 mm 0 W/m2
03:20 10.5 °C 8.6 °C 1019.5 hPa NE 3.2 km/h 8 km/h 88% 0 mm 0 W/m2
03:30 10.4 °C 8.7 °C 1019.5 hPa ESE 1.6 km/h 8 km/h 89% 0 mm 0 W/m2
03:40 10.2 °C 8.4 °C 1019.2 hPa ESE 4.8 km/h 11.3 km/h 89% 0 mm 0 W/m2
03:50 10.1 °C 8.4 °C 1019.2 hPa SE 1.6 km/h 9.7 km/h 89% 0 mm 0 W/m2
04:00 9.9 °C 8.2 °C 1019.2 hPa SW 1.6 km/h 6.4 km/h 89% 0 mm 0 W/m2
04:10 9.8 °C 8.2 °C 1019.2 hPa ENE 1.6 km/h 4.8 km/h 90% 0 mm 0 W/m2
04:20 9.8 °C 8.2 °C 1019.2 hPa North 1.6 km/h 4.8 km/h 90% 0 mm 0 W/m2
04:30 9.9 °C 8.3 °C 1019.5 hPa ESE 3.2 km/h 8 km/h 90% 0 mm 0 W/m2
04:40 10.1 °C 8.4 °C 1019.5 hPa Calm   11.3 km/h 89% 0 mm 0 W/m2
04:50 9.7 °C 8 °C 1019.5 hPa NE 4.8 km/h 8 km/h 89% 0 mm 0 W/m2
05:00 9.6 °C 7.8 °C 1019.5 hPa NE 1.6 km/h 8 km/h 89% 0 mm 0 W/m2
05:10 8.9 °C 7.4 °C 1019.9 hPa WNW 3.2 km/h 4.8 km/h 90% 0 mm 0 W/m2
05:20 8.8 °C 7.4 °C 1019.9 hPa Calm   6.4 km/h 91% 0 mm 0 W/m2
05:30 8.7 °C 7.3 °C 1019.9 hPa Calm   3.2 km/h 91% 0 mm 0 W/m2
05:40 8.7 °C 7.6 °C 1019.9 hPa Calm   3.2 km/h 93% 0 mm 0 W/m2
05:50 8.4 °C 7.3 °C 1020.2 hPa NNW 1.6 km/h 6.4 km/h 93% 0 mm 0 W/m2
06:00 8.4 °C 7.3 °C 1020.2 hPa Calm   4.8 km/h 93% 0 mm 0 W/m2
06:10 8.5 °C 7.7 °C 1020.2 hPa NNE 3.2 km/h 4.8 km/h 95% 0 mm 0 W/m2
06:20 8.6 °C 7.7 °C 1020.2 hPa NE 1.6 km/h 8 km/h 94% 0 mm 0 W/m2
06:30 8.3 °C 7.2 °C 1020.2 hPa NW 1.6 km/h 6.4 km/h 93% 0 mm 0 W/m2
06:40 8.3 °C 7.6 °C 1020.2 hPa Calm   4.8 km/h 95% 0 mm 0 W/m2
06:50 8.3 °C 7.6 °C 1020.2 hPa Calm   4.8 km/h 95% 0 mm 0 W/m2
07:00 8.1 °C 7 °C 1020.2 hPa Calm   4.8 km/h 93% 0 mm 3 W/m2
07:10 7.8 °C 6.7 °C 1020.2 hPa Calm   3.2 km/h 93% 0 mm 16 W/m2
07:20 7.6 °C 6.7 °C 1020.5 hPa WNW 1.6 km/h 6.4 km/h 94% 0 mm 27 W/m2
07:30 7.6 °C 6.8 °C 1020.5 hPa WNW 1.6 km/h 6.4 km/h 95% 0 mm 47 W/m2
07:40 7.8 °C 7.2 °C 1020.5 hPa Calm   4.8 km/h 96% 0 mm 61 W/m2
07:50 7.7 °C 7.2 °C 1020.5 hPa Calm   3.2 km/h 96% 0 mm 50 W/m2
08:00 7.8 °C 7.2 °C 1020.5 hPa Calm   3.2 km/h 96% 0 mm 60 W/m2
08:10 7.9 °C 7.3 °C 1020.9 hPa North 3.2 km/h 4.8 km/h 96% 0 mm 62 W/m2
08:20 8.2 °C 7.9 °C 1020.9 hPa Calm   4.8 km/h 98% 0 mm 115 W/m2
08:30 8.4 °C 8.1 °C 1020.9 hPa WNW 1.6 km/h 3.2 km/h 98% 0 mm 146 W/m2
08:40 8.9 °C 8.7 °C 1021.2 hPa Calm   4.8 km/h 98% 0 mm 197 W/m2
08:50 9.8 °C 9.6 °C 1021.2 hPa Calm   1.6 km/h 98% 0 mm 215 W/m2
09:00 10.7 °C 10.1 °C 1021.2 hPa Calm   3.2 km/h 96% 0 mm 173 W/m2
09:10 11.2 °C 10.4 °C 1021.6 hPa SW 1.6 km/h 1.6 km/h 95% 0 mm 272 W/m2
09:20 11.7 °C 10.7 °C 1021.2 hPa WNW 1.6 km/h 1.6 km/h 94% 0 mm 258 W/m2
09:30 12.3 °C 11.3 °C 1021.2 hPa Calm   1.6 km/h 93% 0 mm 328 W/m2
09:40 12.9 °C 11.5 °C 1021.2 hPa Calm   3.2 km/h 91% 0 mm 251 W/m2
09:50 13.8 °C 12.2 °C 1021.2 hPa West 1.6 km/h 1.6 km/h 90% 0 mm 279 W/m2
10:00 14.9 °C 12.3 °C 1021.2 hPa SSW 1.6 km/h 3.2 km/h 84% 0 mm 303 W/m2
10:10 15.7 °C 12.4 °C 1021.2 hPa ENE 3.2 km/h 8 km/h 81% 0 mm 258 W/m2
10:20 16.2 °C 12.7 °C 1021.2 hPa NNE 3.2 km/h 8 km/h 80% 0 mm 331 W/m2
10:30 16.8 °C 13 °C 1020.9 hPa North 3.2 km/h 8 km/h 78% 0 mm 467 W/m2
10:40 17.8 °C 13.1 °C 1020.9 hPa SE 1.6 km/h 11.3 km/h 74% 0 mm 455 W/m2
10:50 18.4 °C 13.3 °C 1020.9 hPa SE 8 km/h 11.3 km/h 72% 0 mm 496 W/m2
11:00 19 °C 13.2 °C 1020.9 hPa ESE 3.2 km/h 11.3 km/h 69% 0 mm 507 W/m2
11:10 19.3 °C 13.3 °C 1020.9 hPa SSE 9.7 km/h 12.9 km/h 68% 0 mm 518 W/m2
11:20 19.8 °C 13.5 °C 1020.5 hPa SSE 3.2 km/h 11.3 km/h 67% 0 mm 527 W/m2
11:30 20.1 °C 13.3 °C 1020.5 hPa SE 1.6 km/h 14.5 km/h 65% 0 mm 359 W/m2
11:40 20.4 °C 13.3 °C 1020.5 hPa ESE 8 km/h 11.3 km/h 64% 0 mm 541 W/m2
11:50 20.8 °C 13.5 °C 1020.5 hPa SW 11.3 km/h 19.3 km/h 63% 0 mm 545 W/m2
12:00 21 °C 13.2 °C 1020.5 hPa SW 11.3 km/h 20.9 km/h 61% 0 mm 548 W/m2
12:10 21.3 °C 13.2 °C 1020.2 hPa SW 9.7 km/h 19.3 km/h 60% 0 mm 549 W/m2
12:20 21.4 °C 13.1 °C 1020.2 hPa SW 12.9 km/h 24.1 km/h 59% 0 mm 529 W/m2
12:30 21.4 °C 13.1 °C 1020.2 hPa SW 9.7 km/h 19.3 km/h 59% 0 mm 547 W/m2
12:40 21.8 °C 13.4 °C 1019.9 hPa SW 9.7 km/h 24.1 km/h 59% 0 mm 543 W/m2
12:50 22 °C 13.3 °C 1019.9 hPa SW 11.3 km/h 20.9 km/h 58% 0 mm 508 W/m2
13:00 22.1 °C 13.4 °C 1019.9 hPa SW 9.7 km/h 17.7 km/h 58% 0 mm 531 W/m2
13:10 22.2 °C 13.6 °C 1019.9 hPa SW 11.3 km/h 19.3 km/h 58% 0 mm 523 W/m2
13:20 22.2 °C 13.3 °C 1019.5 hPa SW 11.3 km/h 20.9 km/h 57% 0 mm 475 W/m2
13:30 22.2 °C 13.3 °C 1019.5 hPa SW 11.3 km/h 19.3 km/h 57% 0 mm 502 W/m2
13:40 22.2 °C 13.3 °C 1019.5 hPa SW 14.5 km/h 19.3 km/h 57% 0 mm 490 W/m2
13:50 22.3 °C 13.6 °C 1019.5 hPa SW 11.3 km/h 20.9 km/h 58% 0 mm 476 W/m2
14:00 22.4 °C 13.7 °C 1019.5 hPa SW 11.3 km/h 20.9 km/h 58% 0 mm 460 W/m2
14:10 22.2 °C 13.6 °C 1019.2 hPa SW 11.3 km/h 20.9 km/h 58% 0 mm 414 W/m2
14:20 22.1 °C 13.4 °C 1019.2 hPa SW 14.5 km/h 20.9 km/h 58% 0 mm 425 W/m2
14:30 21.8 °C 13.4 °C 1019.2 hPa SW 9.7 km/h 19.3 km/h 59% 0 mm 401 W/m2
14:40 21.9 °C 13.3 °C 1019.2 hPa SSW 9.7 km/h 19.3 km/h 58% 0 mm 374 W/m2
14:50 21.8 °C 13.4 °C 1019.2 hPa SSW 12.9 km/h 19.3 km/h 59% 0 mm 201 W/m2
15:00 21.7 °C 13.3 °C 1019.2 hPa SW 12.9 km/h 19.3 km/h 59% 0 mm 268 W/m2
15:20 21.7 °C 13.6 °C 1019.2 hPa SSW 9.7 km/h 16.1 km/h 60% 0 mm 264 W/m2
15:30 21.6 °C 13.5 °C 1019.2 hPa SSW 8 km/h 17.7 km/h 60% 0 mm 244 W/m2
15:40 21.6 °C 13.6 °C 1018.8 hPa SW 9.7 km/h 16.1 km/h 60% 0 mm 193 W/m2
15:50 21.6 °C 13.5 °C 1018.8 hPa SSW 9.7 km/h 14.5 km/h 60% 0 mm 220 W/m2
16:00 21.6 °C 13.5 °C 1018.8 hPa SSW 8 km/h 14.5 km/h 60% 0 mm 184 W/m2
16:10 21.6 °C 14 °C 1018.8 hPa SSW 9.7 km/h 16.1 km/h 62% 0 mm 161 W/m2
16:20 21.5 °C 13.9 °C 1018.8 hPa SW 4.8 km/h 16.1 km/h 62% 0 mm 143 W/m2
16:30 21.5 °C 13.9 °C 1018.8 hPa SW 12.9 km/h 19.3 km/h 62% 0 mm 118 W/m2
16:40 21.4 °C 13.9 °C 1018.8 hPa SW 9.7 km/h 16.1 km/h 62% 0 mm 85 W/m2
16:50 21.3 °C 13.7 °C 1018.8 hPa SW 8 km/h 12.9 km/h 62% 0 mm 37 W/m2
17:00 21 °C 13.7 °C 1018.8 hPa SW 4.8 km/h 11.3 km/h 63% 0 mm 23 W/m2
17:10 20.8 °C 13.7 °C 1018.8 hPa WSW 4.8 km/h 11.3 km/h 64% 0 mm 11 W/m2
17:20 20.6 °C 13.8 °C 1018.8 hPa Calm   8 km/h 65% 0 mm 6 W/m2
17:30 20.2 °C 13.9 °C 1018.8 hPa NNE 1.6 km/h 8 km/h 67% 0 mm 2 W/m2
17:40 20 °C 13.2 °C 1018.8 hPa ENE 1.6 km/h 8 km/h 65% 0 mm 0 W/m2
17:50 19.7 °C 13.4 °C 1019.2 hPa SW 1.6 km/h 8 km/h 67% 0 mm 0 W/m2
18:00 19.4 °C 13.1 °C 1019.2 hPa SW 1.6 km/h 9.7 km/h 67% 0 mm 0 W/m2
18:10 19.3 °C 13.2 °C 1019.2 hPa SSW 1.6 km/h 9.7 km/h 68% 0 mm 0 W/m2
18:20 19.1 °C 13.1 °C 1019.2 hPa SW 3.2 km/h 6.4 km/h 68% 0 mm 0 W/m2
18:30 18.9 °C 13.1 °C 1019.2 hPa SW 3.2 km/h 4.8 km/h 69% 0 mm 0 W/m2
18:40 18.7 °C 12.9 °C 1019.2 hPa SW 1.6 km/h 6.4 km/h 69% 0 mm 0 W/m2
18:50 18.5 °C 12.7 °C 1019.5 hPa SW 3.2 km/h 8 km/h 69% 0 mm 0 W/m2
19:00 18.4 °C 12.6 °C 1019.5 hPa SE 4.8 km/h 9.7 km/h 69% 0 mm 0 W/m2
19:10 18.2 °C 12.6 °C 1019.5 hPa South 3.2 km/h 6.4 km/h 70% 0 mm 0 W/m2
19:20 17.8 °C 12.7 °C 1019.5 hPa WSW 3.2 km/h 8 km/h 72% 0 mm 0 W/m2
19:30 17.6 °C 12.7 °C 1019.5 hPa NW 3.2 km/h 6.4 km/h 73% 0 mm 0 W/m2
19:40 17.4 °C 12.5 °C 1019.9 hPa East 3.2 km/h 8 km/h 73% 0 mm 0 W/m2
19:50 17.3 °C 12.4 °C 1019.5 hPa South 1.6 km/h 8 km/h 73% 0 mm 0 W/m2
20:00 17.1 °C 12.4 °C 1019.5 hPa SSE 3.2 km/h 8 km/h 74% 0 mm 0 W/m2
20:10 17 °C 12.3 °C 1019.9 hPa SSE 1.6 km/h 11.3 km/h 74% 0 mm 0 W/m2
20:20 16.9 °C 12.4 °C 1019.9 hPa WNW 1.6 km/h 4.8 km/h 75% 0 mm 0 W/m2
20:30 16.7 °C 12.4 °C 1019.9 hPa WNW 1.6 km/h 4.8 km/h 76% 0 mm 0 W/m2
20:40 16.4 °C 12.6 °C 1019.9 hPa Calm   4.8 km/h 78% 0 mm 0 W/m2
20:50 16.1 °C 12.3 °C 1019.9 hPa NW 1.6 km/h 3.2 km/h 78% 0 mm 0 W/m2
21:00 16 °C 12.3 °C 1019.9 hPa NW 1.6 km/h 3.2 km/h 79% 0 mm 0 W/m2
21:10 16 °C 12.2 °C 1019.9 hPa SSE 3.2 km/h 6.4 km/h 78% 0 mm 0 W/m2
21:20 16 °C 12.2 °C 1019.9 hPa Calm   3.2 km/h 78% 0 mm 0 W/m2
21:30 15.8 °C 12.2 °C 1019.9 hPa WNW 1.6 km/h 4.8 km/h 79% 0 mm 0 W/m2
21:40 15.6 °C 12.2 °C 1019.9 hPa North 1.6 km/h 8 km/h 80% 0 mm 0 W/m2
21:50 15.4 °C 12.2 °C 1019.9 hPa North 3.2 km/h 6.4 km/h 81% 0 mm 0 W/m2
22:00 15.4 °C 12.2 °C 1019.9 hPa SE 3.2 km/h 8 km/h 81% 0 mm 0 W/m2
22:10 15.4 °C 12.2 °C 1019.9 hPa SE 4.8 km/h 8 km/h 81% 0 mm 0 W/m2
22:20 15.3 °C 12.1 °C 1019.9 hPa ESE 4.8 km/h 11.3 km/h 81% 0 mm 0 W/m2
22:30 15.4 °C 12.2 °C 1019.9 hPa ESE 3.2 km/h 11.3 km/h 81% 0 mm 0 W/m2
22:40 15.5 °C 12.1 °C 1020.2 hPa ESE 1.6 km/h 8 km/h 80% 0 mm 0 W/m2
22:50 15.5 °C 12.1 °C 1020.2 hPa NNE 1.6 km/h 4.8 km/h 80% 0 mm 0 W/m2
23:00 15.6 °C 12.2 °C 1019.9 hPa ESE 8 km/h 11.3 km/h 80% 0 mm 0 W/m2
23:10 15.5 °C 12.1 °C 1020.2 hPa Calm   12.9 km/h 80% 0 mm 0 W/m2
23:20 15.4 °C 11.9 °C 1020.2 hPa East 4.8 km/h 9.7 km/h 80% 0 mm 0 W/m2
23:30 15.4 °C 11.9 °C 1020.2 hPa SSE 1.6 km/h 9.7 km/h 80% 0 mm 0 W/m2
23:40 15.4 °C 11.9 °C 1020.2 hPa SE 3.2 km/h 8 km/h 80% 0 mm 0 W/m2
23:50 15.4 °C 11.9 °C 1020.2 hPa East 1.6 km/h 8 km/h 80% 0 mm 0 W/m2
Knjazevac, Serbia
Compliments of Weather Underground - 2 mb